createdAt,value
2016-09-18T00:00:04.841Z,18.31
2016-09-18T00:01:04.815Z,18.37
2016-09-18T00:02:04.800Z,18.37
2016-09-18T00:03:04.773Z,18.37
2016-09-18T00:04:04.755Z,18.35
2016-09-18T00:05:04.738Z,18.37
2016-09-18T00:06:04.716Z,18.31
2016-09-18T00:07:04.705Z,18.34
2016-09-18T00:08:04.668Z,18.35
2016-09-18T00:09:04.656Z,18.38
2016-09-18T00:10:04.636Z,18.37
2016-09-18T00:11:04.612Z,18.33
2016-09-18T00:12:04.595Z,18.34
2016-09-18T00:13:04.571Z,18.29
2016-09-18T00:14:04.550Z,18.31
2016-09-18T00:15:04.528Z,18.33
2016-09-18T00:16:04.509Z,18.23
2016-09-18T00:17:04.489Z,18.25
2016-09-18T00:18:04.468Z,18.34
2016-09-18T00:19:04.449Z,18.33
2016-09-18T00:20:04.428Z,18.33
2016-09-18T00:21:04.407Z,18.26
2016-09-18T00:22:04.388Z,18.22
2016-09-18T00:23:04.365Z,18.23
2016-09-18T00:24:04.343Z,18.23
2016-09-18T00:25:04.324Z,18.19
2016-09-18T00:26:04.304Z,18.19
2016-09-18T00:27:04.283Z,18.2
2016-09-18T00:28:04.264Z,18.19
2016-09-18T00:29:04.241Z,18.2
2016-09-18T00:30:04.226Z,18.13
2016-09-18T00:31:04.198Z,18.08
2016-09-18T00:32:04.181Z,18.16
2016-09-18T00:33:04.165Z,18.13
2016-09-18T00:34:04.140Z,18.1
2016-09-18T00:35:04.168Z,18.05
2016-09-18T00:36:04.097Z,18.13
2016-09-18T00:37:04.374Z,18.05
2016-09-18T00:38:04.064Z,18.11
2016-09-18T00:39:04.043Z,18.05
2016-09-18T00:40:04.017Z,18
2016-09-18T00:41:03.993Z,18.1
2016-09-18T00:42:03.976Z,18.03
2016-09-18T00:43:03.950Z,17.97
2016-09-18T00:44:03.933Z,17.94
2016-09-18T00:45:03.912Z,17.98
2016-09-18T00:46:03.892Z,17.92
2016-09-18T00:47:03.869Z,17.94
2016-09-18T00:48:03.846Z,17.87
2016-09-18T00:49:03.832Z,17.85
2016-09-18T00:50:03.806Z,17.86
2016-09-18T00:51:04.088Z,17.9
2016-09-18T00:52:03.761Z,17.9
2016-09-18T00:53:03.745Z,17.74
2016-09-18T00:54:03.722Z,17.7
2016-09-18T00:55:03.707Z,17.79
2016-09-18T00:56:03.680Z,17.72
2016-09-18T00:57:03.661Z,17.67
2016-09-18T00:58:03.644Z,17.74
2016-09-18T00:59:03.614Z,17.74
2016-09-18T01:00:03.597Z,17.74
2016-09-18T01:01:03.574Z,17.74
2016-09-18T01:02:03.554Z,17.7
2016-09-18T01:03:03.542Z,17.68
2016-09-18T01:04:03.516Z,17.6
2016-09-18T01:05:03.494Z,17.57
2016-09-18T01:06:03.468Z,17.57
2016-09-18T01:07:03.756Z,17.49
2016-09-18T01:08:03.426Z,17.48
2016-09-18T01:09:03.405Z,17.51
2016-09-18T01:10:03.386Z,17.48
2016-09-18T01:11:03.365Z,17.46
2016-09-18T01:12:03.349Z,17.49
2016-09-18T01:13:03.323Z,17.39
2016-09-18T01:14:03.302Z,17.49
2016-09-18T01:15:03.281Z,17.46
2016-09-18T01:16:03.261Z,17.42
2016-09-18T01:17:03.243Z,17.42
2016-09-18T01:18:03.216Z,17.44
2016-09-18T01:19:03.197Z,17.41
2016-09-18T01:20:03.173Z,17.45
2016-09-18T01:21:03.149Z,17.42
2016-09-18T01:22:03.134Z,17.38
2016-09-18T01:23:03.111Z,17.33
2016-09-18T01:24:03.086Z,17.44
2016-09-18T01:25:03.068Z,17.39
2016-09-18T01:26:03.047Z,17.48
2016-09-18T01:27:03.025Z,17.39
2016-09-18T01:28:03.001Z,17.3
2016-09-18T01:29:02.982Z,17.34
2016-09-18T01:30:02.962Z,17.36
2016-09-18T01:31:02.936Z,17.29
2016-09-18T01:32:02.922Z,17.34
2016-09-18T01:33:02.897Z,17.33
2016-09-18T01:34:02.879Z,17.24
2016-09-18T01:35:02.856Z,17.36
2016-09-18T01:36:02.837Z,17.36
2016-09-18T01:37:02.806Z,17.31
2016-09-18T01:38:02.791Z,17.33
2016-09-18T01:39:02.769Z,17.33
2016-09-18T01:40:02.750Z,17.29
2016-09-18T01:41:02.728Z,17.29
2016-09-18T01:42:02.699Z,17.26
2016-09-18T01:43:02.680Z,17.14
2016-09-18T01:44:02.660Z,17.2
2016-09-18T01:45:02.642Z,17.16
2016-09-18T01:46:02.617Z,17.19
2016-09-18T01:47:02.596Z,17.16
2016-09-18T01:48:02.582Z,17.15
2016-09-18T01:49:02.550Z,17.09
2016-09-18T01:50:02.534Z,17.11
2016-09-18T01:51:02.507Z,17.12
2016-09-18T01:52:02.493Z,17.06
2016-09-18T01:53:02.468Z,17.04
2016-09-18T01:54:02.447Z,17.08
2016-09-18T01:55:02.425Z,17.04
2016-09-18T01:56:02.404Z,17.06
2016-09-18T01:57:02.680Z,17.04
2016-09-18T01:58:02.368Z,17.02
2016-09-18T01:59:02.338Z,16.96
2016-09-18T02:00:02.319Z,16.93
2016-09-18T02:01:02.298Z,16.93
2016-09-18T02:02:02.274Z,16.97
2016-09-18T02:03:02.255Z,16.93
2016-09-18T02:04:02.229Z,17.01
2016-09-18T02:05:02.212Z,17.02
2016-09-18T02:06:02.196Z,16.99
2016-09-18T02:07:02.172Z,16.99
2016-09-18T02:08:02.144Z,17.05
2016-09-18T02:09:02.124Z,16.96
2016-09-18T02:10:02.101Z,16.99
2016-09-18T02:11:02.087Z,16.93
2016-09-18T02:12:02.059Z,16.99
2016-09-18T02:13:02.040Z,16.96
2016-09-18T02:14:02.024Z,16.96
2016-09-18T02:15:01.992Z,17.05
2016-09-18T02:16:01.972Z,16.99
2016-09-18T02:17:01.951Z,16.87
2016-09-18T02:18:01.933Z,16.97
2016-09-18T02:19:01.911Z,16.99
2016-09-18T02:20:01.885Z,16.99
2016-09-18T02:21:01.869Z,16.93
2016-09-18T02:22:01.840Z,16.91
2016-09-18T02:23:01.837Z,16.94
2016-09-18T02:24:01.799Z,16.94
2016-09-18T02:25:01.779Z,16.96
2016-09-18T02:26:01.754Z,16.93
2016-09-18T02:27:01.732Z,16.94
2016-09-18T02:28:01.716Z,16.96
2016-09-18T02:29:01.691Z,17.01
2016-09-18T02:30:01.672Z,16.83
2016-09-18T02:31:01.653Z,16.96
2016-09-18T02:32:01.626Z,16.91
2016-09-18T02:33:01.603Z,16.87
2016-09-18T02:34:01.581Z,16.9
2016-09-18T02:35:01.615Z,16.78
2016-09-18T02:36:01.537Z,16.84
2016-09-18T02:37:01.519Z,16.75
2016-09-18T02:38:01.499Z,16.78
2016-09-18T02:39:01.474Z,16.78
2016-09-18T02:40:01.455Z,16.69
2016-09-18T02:41:01.441Z,16.69
2016-09-18T02:42:01.408Z,16.78
2016-09-18T02:43:01.391Z,16.84
2016-09-18T02:44:01.366Z,16.89
2016-09-18T02:45:01.347Z,16.89
2016-09-18T02:46:01.326Z,16.84
2016-09-18T02:47:01.306Z,16.78
2016-09-18T02:48:01.276Z,16.81
2016-09-18T02:49:01.264Z,16.86
2016-09-18T02:50:01.235Z,16.81
2016-09-18T02:51:01.220Z,16.86
2016-09-18T02:52:01.193Z,16.81
2016-09-18T02:53:01.170Z,16.86
2016-09-18T02:54:01.149Z,16.81
2016-09-18T02:55:01.421Z,16.83
2016-09-18T02:56:01.106Z,16.79
2016-09-18T02:57:01.084Z,16.76
2016-09-18T02:58:01.062Z,16.81
2016-09-18T02:59:01.046Z,16.75
2016-09-18T03:00:01.017Z,16.69
2016-09-18T03:01:01.000Z,16.83
2016-09-18T03:02:00.974Z,16.75
2016-09-18T03:03:00.955Z,16.71
2016-09-18T03:04:00.935Z,16.72
2016-09-18T03:05:00.919Z,16.71
2016-09-18T03:06:00.901Z,16.68
2016-09-18T03:07:00.874Z,16.71
2016-09-18T03:08:00.845Z,16.6
2016-09-18T03:09:00.841Z,16.65
2016-09-18T03:10:00.820Z,16.65
2016-09-18T03:11:00.794Z,16.68
2016-09-18T03:12:00.770Z,16.65
2016-09-18T03:13:00.750Z,16.66
2016-09-18T03:14:00.722Z,16.64
2016-09-18T03:15:00.703Z,16.6
2016-09-18T03:16:00.681Z,16.6
2016-09-18T03:17:00.661Z,16.64
2016-09-18T03:18:00.633Z,16.66
2016-09-18T03:19:00.618Z,16.69
2016-09-18T03:20:00.604Z,16.66
2016-09-18T03:21:00.569Z,16.66
2016-09-18T03:22:00.549Z,16.69
2016-09-18T03:23:00.530Z,16.69
2016-09-18T03:24:00.511Z,16.66
2016-09-18T03:25:00.487Z,16.58
2016-09-18T03:26:00.465Z,16.64
2016-09-18T03:27:00.445Z,16.65
2016-09-18T03:28:00.422Z,16.57
2016-09-18T03:29:00.398Z,16.6
2016-09-18T03:30:00.378Z,16.57
2016-09-18T03:31:00.350Z,16.57
2016-09-18T03:32:00.327Z,16.58
2016-09-18T03:33:00.310Z,16.46
2016-09-18T03:34:00.288Z,16.53
2016-09-18T03:35:00.264Z,16.51
2016-09-18T03:36:00.254Z,16.51
2016-09-18T03:37:00.222Z,16.47
2016-09-18T03:38:00.206Z,16.47
2016-09-18T03:39:00.176Z,16.36
2016-09-18T03:40:00.159Z,16.47
2016-09-18T03:41:00.125Z,16.47
2016-09-18T03:42:00.103Z,16.42
2016-09-18T03:43:00.088Z,16.43
2016-09-18T03:44:00.062Z,16.43
2016-09-18T03:45:00.051Z,16.46
2016-09-18T03:46:00.315Z,16.43
2016-09-18T03:47:00.003Z,16.47
2016-09-18T03:47:59.970Z,16.39
2016-09-18T03:48:59.957Z,16.47
2016-09-18T03:49:59.943Z,16.49
2016-09-18T03:50:59.906Z,16.39
2016-09-18T03:52:00.192Z,16.36
2016-09-18T03:52:59.863Z,16.38
2016-09-18T03:53:59.841Z,16.38
2016-09-18T03:54:59.844Z,16.38
2016-09-18T03:55:59.797Z,16.39
2016-09-18T03:56:59.775Z,16.35
2016-09-18T03:57:59.752Z,16.39
2016-09-18T03:58:59.733Z,16.38
2016-09-18T03:59:59.708Z,16.38
2016-09-18T04:00:59.685Z,16.39
2016-09-18T04:01:59.663Z,16.36
2016-09-18T04:02:59.645Z,16.35
2016-09-18T04:03:59.921Z,16.38
2016-09-18T04:04:59.598Z,16.42
2016-09-18T04:05:59.576Z,16.38
2016-09-18T04:06:59.552Z,16.43
2016-09-18T04:07:59.532Z,16.39
2016-09-18T04:08:59.508Z,16.41
2016-09-18T04:09:59.489Z,16.33
2016-09-18T04:10:59.468Z,16.39
2016-09-18T04:11:59.443Z,16.5
2016-09-18T04:12:59.424Z,16.46
2016-09-18T04:13:59.403Z,16.49
2016-09-18T04:14:59.381Z,16.46
2016-09-18T04:15:59.360Z,16.54
2016-09-18T04:16:59.336Z,16.46
2016-09-18T04:17:59.311Z,16.47
2016-09-18T04:18:59.291Z,16.5
2016-09-18T04:19:59.267Z,16.49
2016-09-18T04:20:59.247Z,16.58
2016-09-18T04:21:59.224Z,16.46
2016-09-18T04:22:59.202Z,16.6
2016-09-18T04:23:59.179Z,16.57
2016-09-18T04:24:59.162Z,16.49
2016-09-18T04:25:59.137Z,16.64
2016-09-18T04:26:59.115Z,16.64
2016-09-18T04:27:59.091Z,16.53
2016-09-18T04:28:59.075Z,16.58
2016-09-18T04:29:59.049Z,16.58
2016-09-18T04:30:59.038Z,16.57
2016-09-18T04:31:59.007Z,16.49
2016-09-18T04:32:58.984Z,16.49
2016-09-18T04:33:58.965Z,16.54
2016-09-18T04:34:58.942Z,16.53
2016-09-18T04:35:58.933Z,16.57
2016-09-18T04:36:58.904Z,16.57
2016-09-18T04:37:58.876Z,16.56
2016-09-18T04:38:58.852Z,16.6
2016-09-18T04:39:58.835Z,16.6
2016-09-18T04:40:58.809Z,16.53
2016-09-18T04:41:58.801Z,16.5
2016-09-18T04:42:58.769Z,16.5
2016-09-18T04:43:58.746Z,16.5
2016-09-18T04:44:58.724Z,16.51
2016-09-18T04:45:58.701Z,16.47
2016-09-18T04:46:58.679Z,16.51
2016-09-18T04:47:58.656Z,16.51
2016-09-18T04:48:58.635Z,16.5
2016-09-18T04:49:58.611Z,16.51
2016-09-18T04:50:58.592Z,16.49
2016-09-18T04:51:58.567Z,16.51
2016-09-18T04:52:58.546Z,16.49
2016-09-18T04:53:58.526Z,16.51
2016-09-18T04:54:58.505Z,16.47
2016-09-18T04:55:58.482Z,16.49
2016-09-18T04:56:58.462Z,16.51
2016-09-18T04:57:58.446Z,16.49
2016-09-18T04:58:58.416Z,16.53
2016-09-18T04:59:58.393Z,16.51
2016-09-18T05:00:58.375Z,16.53
2016-09-18T05:01:58.348Z,16.51
2016-09-18T05:02:58.628Z,16.5
2016-09-18T05:03:58.308Z,16.58
2016-09-18T05:04:58.288Z,16.57
2016-09-18T05:05:58.261Z,16.58
2016-09-18T05:06:58.240Z,16.53
2016-09-18T05:07:58.224Z,16.53
2016-09-18T05:08:58.192Z,16.57
2016-09-18T05:09:58.178Z,16.66
2016-09-18T05:10:58.155Z,16.6
2016-09-18T05:11:58.130Z,16.6
2016-09-18T05:12:58.111Z,16.6
2016-09-18T05:13:58.098Z,16.71
2016-09-18T05:14:58.069Z,16.58
2016-09-18T05:15:58.043Z,16.6
2016-09-18T05:16:58.025Z,16.56
2016-09-18T05:17:58.001Z,16.57
2016-09-18T05:18:58.275Z,16.68
2016-09-18T05:19:57.957Z,16.58
2016-09-18T05:20:57.934Z,16.57
2016-09-18T05:21:58.238Z,16.6
2016-09-18T05:22:57.890Z,16.61
2016-09-18T05:23:57.870Z,16.66
2016-09-18T05:24:57.851Z,16.68
2016-09-18T05:25:57.828Z,16.6
2016-09-18T05:26:57.812Z,16.72
2016-09-18T05:27:57.785Z,16.72
2016-09-18T05:28:57.763Z,16.71
2016-09-18T05:29:57.736Z,16.65
2016-09-18T05:30:57.712Z,16.75
2016-09-18T05:31:57.695Z,16.61
2016-09-18T05:32:57.672Z,16.61
2016-09-18T05:33:57.656Z,16.65
2016-09-18T05:34:57.635Z,16.66
2016-09-18T05:35:57.612Z,16.61
2016-09-18T05:36:57.585Z,16.64
2016-09-18T05:37:57.563Z,16.64
2016-09-18T05:38:57.543Z,16.68
2016-09-18T05:39:57.519Z,16.66
2016-09-18T05:40:57.497Z,16.6
2016-09-18T05:41:57.478Z,16.66
2016-09-18T05:42:57.453Z,16.61
2016-09-18T05:43:57.435Z,16.68
2016-09-18T05:44:57.408Z,16.68
2016-09-18T05:45:57.392Z,16.68
2016-09-18T05:46:57.365Z,16.65
2016-09-18T05:47:57.344Z,16.61
2016-09-18T05:48:57.325Z,16.6
2016-09-18T05:49:57.299Z,16.6
2016-09-18T05:50:57.288Z,16.6
2016-09-18T05:51:57.261Z,16.61
2016-09-18T05:52:57.238Z,16.68
2016-09-18T05:53:57.214Z,16.71
2016-09-18T05:54:57.189Z,16.74
2016-09-18T05:55:57.171Z,16.69
2016-09-18T05:56:57.149Z,16.65
2016-09-18T05:57:57.126Z,16.66
2016-09-18T05:58:57.110Z,16.68
2016-09-18T05:59:57.085Z,16.65
2016-09-18T06:00:57.062Z,16.61
2016-09-18T06:01:57.040Z,16.6
2016-09-18T06:02:57.020Z,16.61
2016-09-18T06:03:56.998Z,16.65
2016-09-18T06:04:56.993Z,16.65
2016-09-18T06:05:56.954Z,16.6
2016-09-18T06:06:56.931Z,16.6
2016-09-18T06:07:56.910Z,16.65
2016-09-18T06:08:56.889Z,16.64
2016-09-18T06:09:56.869Z,16.64
2016-09-18T06:10:56.845Z,16.64
2016-09-18T06:11:56.825Z,16.64
2016-09-18T06:12:56.798Z,16.64
2016-09-18T06:13:56.786Z,16.64
2016-09-18T06:14:56.757Z,16.66
2016-09-18T06:15:56.734Z,16.71
2016-09-18T06:16:56.713Z,16.68
2016-09-18T06:17:56.690Z,16.74
2016-09-18T06:18:56.670Z,16.66
2016-09-18T06:19:56.657Z,16.68
2016-09-18T06:20:56.626Z,16.66
2016-09-18T06:21:56.607Z,16.68
2016-09-18T06:22:56.582Z,16.71
2016-09-18T06:23:56.564Z,16.74
2016-09-18T06:24:56.540Z,16.68
2016-09-18T06:25:56.520Z,16.74
2016-09-18T06:26:56.508Z,16.72
2016-09-18T06:27:56.480Z,16.72
2016-09-18T06:28:56.455Z,16.72
2016-09-18T06:29:56.433Z,16.83
2016-09-18T06:30:56.423Z,16.71
2016-09-18T06:31:56.386Z,16.76
2016-09-18T06:32:56.366Z,16.86
2016-09-18T06:33:56.344Z,16.81
2016-09-18T06:34:56.324Z,16.79
2016-09-18T06:35:56.301Z,16.83
2016-09-18T06:36:56.281Z,16.87
2016-09-18T06:37:56.257Z,16.87
2016-09-18T06:38:56.236Z,16.86
2016-09-18T06:39:56.229Z,16.81
2016-09-18T06:40:56.198Z,16.83
2016-09-18T06:41:56.168Z,16.83
2016-09-18T06:42:56.148Z,16.84
2016-09-18T06:43:56.128Z,16.89
2016-09-18T06:44:56.111Z,16.97
2016-09-18T06:45:56.085Z,16.87
2016-09-18T06:46:56.061Z,16.94
2016-09-18T06:47:56.046Z,16.87
2016-09-18T06:48:56.018Z,16.99
2016-09-18T06:49:55.999Z,17.01
2016-09-18T06:50:55.977Z,16.96
2016-09-18T06:51:55.955Z,16.97
2016-09-18T06:52:55.938Z,16.94
2016-09-18T06:53:55.915Z,16.99
2016-09-18T06:54:55.898Z,17.01
2016-09-18T06:55:55.877Z,17.02
2016-09-18T06:56:55.853Z,17.02
2016-09-18T06:57:55.839Z,16.96
2016-09-18T06:58:55.812Z,16.96
2016-09-18T06:59:55.786Z,16.96
2016-09-18T07:00:55.764Z,16.97
2016-09-18T07:01:55.740Z,17.04
2016-09-18T07:02:55.725Z,16.99
2016-09-18T07:03:55.704Z,17.01
2016-09-18T07:04:55.681Z,17.02
2016-09-18T07:05:55.659Z,16.99
2016-09-18T07:06:55.640Z,16.91
2016-09-18T07:07:55.619Z,17.04
2016-09-18T07:08:55.598Z,17.02
2016-09-18T07:09:55.575Z,16.93
2016-09-18T07:10:55.552Z,17.02
2016-09-18T07:11:55.529Z,16.94
2016-09-18T07:12:55.514Z,16.94
2016-09-18T07:13:55.491Z,17.09
2016-09-18T07:14:55.471Z,17.04
2016-09-18T07:15:55.450Z,16.96
2016-09-18T07:16:55.430Z,16.99
2016-09-18T07:17:55.405Z,17.01
2016-09-18T07:18:55.384Z,17.01
2016-09-18T07:19:55.364Z,16.93
2016-09-18T07:20:55.342Z,16.99
2016-09-18T07:21:55.322Z,17.04
2016-09-18T07:22:55.301Z,16.94
2016-09-18T07:23:55.629Z,17.05
2016-09-18T07:24:55.258Z,17.04
2016-09-18T07:25:55.236Z,16.97
2016-09-18T07:26:55.214Z,16.93
2016-09-18T07:27:55.190Z,17.02
2016-09-18T07:28:55.172Z,17.02
2016-09-18T07:29:55.445Z,16.94
2016-09-18T07:30:55.130Z,16.93
2016-09-18T07:31:55.107Z,17.01
2016-09-18T07:32:55.087Z,16.99
2016-09-18T07:33:55.064Z,17.04
2016-09-18T07:34:55.042Z,16.99
2016-09-18T07:35:55.026Z,16.97
2016-09-18T07:36:55.003Z,17.02
2016-09-18T07:37:54.984Z,16.93
2016-09-18T07:38:54.959Z,16.97
2016-09-18T07:39:54.935Z,16.86
2016-09-18T07:40:54.915Z,16.97
2016-09-18T07:41:54.892Z,16.97
2016-09-18T07:42:54.873Z,16.97
2016-09-18T07:43:54.854Z,16.94
2016-09-18T07:44:54.830Z,16.97
2016-09-18T07:45:54.811Z,16.97
2016-09-18T07:46:54.789Z,17.02
2016-09-18T07:47:54.767Z,16.97
2016-09-18T07:48:54.744Z,16.96
2016-09-18T07:49:54.726Z,16.97
2016-09-18T07:50:54.704Z,16.94
2016-09-18T07:51:54.684Z,17.02
2016-09-18T07:52:54.661Z,16.97
2016-09-18T07:53:54.641Z,16.99
2016-09-18T07:54:54.613Z,17.02
2016-09-18T07:55:54.597Z,16.91
2016-09-18T07:56:54.575Z,16.83
2016-09-18T07:57:54.550Z,16.84
2016-09-18T07:58:54.531Z,16.79
2016-09-18T07:59:54.511Z,16.83
2016-09-18T08:00:54.488Z,16.86
2016-09-18T08:01:54.480Z,16.87
2016-09-18T08:02:54.446Z,16.84
2016-09-18T08:03:54.431Z,17.02
2016-09-18T08:04:54.403Z,16.93
2016-09-18T08:05:54.383Z,17.05
2016-09-18T08:06:54.360Z,16.99
2016-09-18T08:07:54.338Z,17.06
2016-09-18T08:08:54.321Z,17.02
2016-09-18T08:09:54.296Z,16.94
2016-09-18T08:10:54.273Z,17.02
2016-09-18T08:11:54.253Z,16.96
2016-09-18T08:12:54.232Z,17.06
2016-09-18T08:13:54.211Z,17.08
2016-09-18T08:14:54.191Z,17.06
2016-09-18T08:15:54.168Z,17.06
2016-09-18T08:16:54.150Z,17.04
2016-09-18T08:17:54.135Z,17.26
2016-09-18T08:18:54.116Z,17.19
2016-09-18T08:19:54.088Z,17.15
2016-09-18T08:20:54.068Z,17.16
2016-09-18T08:21:54.045Z,17.24
2016-09-18T08:22:54.033Z,17.31
2016-09-18T08:23:54.009Z,17.3
2016-09-18T08:24:54.004Z,17.33
2016-09-18T08:25:53.969Z,17.41
2016-09-18T08:26:53.943Z,17.42
2016-09-18T08:27:53.932Z,17.48
2016-09-18T08:28:53.913Z,17.45
2016-09-18T08:29:53.880Z,17.48
2016-09-18T08:30:53.856Z,17.49
2016-09-18T08:31:53.841Z,17.44
2016-09-18T08:32:53.819Z,17.48
2016-09-18T08:33:53.804Z,17.45
2016-09-18T08:34:53.780Z,17.46
2016-09-18T08:35:53.757Z,17.45
2016-09-18T08:36:53.747Z,17.48
2016-09-18T08:37:53.726Z,17.46
2016-09-18T08:38:53.698Z,17.49
2016-09-18T08:39:53.676Z,17.44
2016-09-18T08:40:53.656Z,17.39
2016-09-18T08:41:53.634Z,17.42
2016-09-18T08:42:53.619Z,17.45
2016-09-18T08:43:53.597Z,17.52
2016-09-18T08:44:53.574Z,17.54
2016-09-18T08:45:53.555Z,17.59
2016-09-18T08:46:53.537Z,17.59
2016-09-18T08:47:53.512Z,17.63
2016-09-18T08:48:53.490Z,17.59
2016-09-18T08:49:53.473Z,17.68
2016-09-18T08:50:53.460Z,17.71
2016-09-18T08:51:53.438Z,17.74
2016-09-18T08:52:53.413Z,17.8
2016-09-18T08:53:53.392Z,17.79
2016-09-18T08:54:53.377Z,17.7
2016-09-18T08:55:53.354Z,17.71
2016-09-18T08:56:53.330Z,17.7
2016-09-18T08:57:53.314Z,17.71
2016-09-18T08:58:53.291Z,17.76
2016-09-18T08:59:53.271Z,17.79
2016-09-18T09:00:53.261Z,17.8
2016-09-18T09:01:53.239Z,17.85
2016-09-18T09:02:53.215Z,17.89
2016-09-18T09:03:53.196Z,17.94
2016-09-18T09:04:53.173Z,17.83
2016-09-18T09:05:53.150Z,17.83
2016-09-18T09:06:53.133Z,17.89
2016-09-18T09:07:53.110Z,17.82
2016-09-18T09:08:53.092Z,17.86
2016-09-18T09:09:53.071Z,17.74
2016-09-18T09:10:53.069Z,17.79
2016-09-18T09:11:53.036Z,17.7
2016-09-18T09:12:53.011Z,17.78
2016-09-18T09:13:53.003Z,17.65
2016-09-18T09:14:52.971Z,17.74
2016-09-18T09:15:52.952Z,17.76
2016-09-18T09:16:52.930Z,17.82
2016-09-18T09:17:52.914Z,17.9
2016-09-18T09:18:52.902Z,17.83
2016-09-18T09:19:52.878Z,17.79
2016-09-18T09:20:52.858Z,17.76
2016-09-18T09:21:52.839Z,17.76
2016-09-18T09:22:52.813Z,17.78
2016-09-18T09:23:52.796Z,17.78
2016-09-18T09:24:52.777Z,17.82
2016-09-18T09:25:52.754Z,17.89
2016-09-18T09:26:52.733Z,17.97
2016-09-18T09:27:52.718Z,17.97
2016-09-18T09:28:52.696Z,17.87
2016-09-18T09:29:52.676Z,18.05
2016-09-18T09:30:52.656Z,18.25
2016-09-18T09:31:52.641Z,18.18
2016-09-18T09:32:52.620Z,18.26
2016-09-18T09:33:52.599Z,18.34
2016-09-18T09:34:52.582Z,18.37
2016-09-18T09:35:52.565Z,18.5
2016-09-18T09:36:52.545Z,18.59
2016-09-18T09:37:52.525Z,18.8
2016-09-18T09:38:52.507Z,18.9
2016-09-18T09:39:52.488Z,18.98
2016-09-18T09:40:52.472Z,19
2016-09-18T09:41:52.463Z,19.12
2016-09-18T09:42:52.438Z,19.08
2016-09-18T09:43:52.422Z,19.15
2016-09-18T09:44:52.400Z,19.29
2016-09-18T09:45:52.382Z,19.45
2016-09-18T09:46:52.364Z,19.47
2016-09-18T09:47:52.353Z,19.48
2016-09-18T09:48:52.332Z,19.69
2016-09-18T09:49:52.312Z,19.69
2016-09-18T09:50:52.295Z,19.79
2016-09-18T09:51:52.276Z,19.77
2016-09-18T09:52:52.258Z,19.91
2016-09-18T09:53:52.246Z,19.94
2016-09-18T09:54:52.227Z,19.94
2016-09-18T09:55:52.210Z,19.92
2016-09-18T09:56:52.191Z,19.86
2016-09-18T09:57:52.178Z,19.91
2016-09-18T09:58:52.157Z,19.86
2016-09-18T09:59:52.146Z,19.96
2016-09-18T10:00:52.140Z,19.92
2016-09-18T10:01:52.112Z,19.89
2016-09-18T10:02:52.092Z,19.94
2016-09-18T10:03:52.083Z,19.99
2016-09-18T10:04:52.066Z,20.03
2016-09-18T10:05:52.046Z,20.09
2016-09-18T10:06:52.025Z,20.18
2016-09-18T10:07:52.019Z,20.18
2016-09-18T10:08:51.991Z,20.29
2016-09-18T10:09:51.971Z,20.43
2016-09-18T10:10:51.957Z,20.48
2016-09-18T10:11:51.940Z,20.5
2016-09-18T10:12:51.922Z,20.4
2016-09-18T10:13:51.907Z,20.43
2016-09-18T10:14:51.897Z,20.43
2016-09-18T10:15:51.877Z,20.43
2016-09-18T10:16:51.857Z,20.39
2016-09-18T10:17:51.859Z,20.36
2016-09-18T10:18:51.822Z,20.36
2016-09-18T10:19:51.812Z,20.43
2016-09-18T10:20:51.792Z,20.47
2016-09-18T10:21:51.778Z,20.6
2016-09-18T10:22:51.763Z,20.52
2016-09-18T10:23:51.746Z,20.55
2016-09-18T10:24:51.726Z,20.41
2016-09-18T10:25:51.715Z,20.31
2016-09-18T10:26:51.690Z,20.14
2016-09-18T10:27:51.678Z,20.31
2016-09-18T10:28:51.662Z,20.4
2016-09-18T10:29:51.644Z,20.37
2016-09-18T10:30:51.635Z,20.44
2016-09-18T10:31:51.609Z,20.47
2016-09-18T10:32:51.595Z,20.47
2016-09-18T10:33:51.579Z,20.5
2016-09-18T10:34:51.565Z,20.34
2016-09-18T10:35:51.545Z,20.28
2016-09-18T10:36:51.529Z,20.16
2016-09-18T10:37:51.512Z,20.14
2016-09-18T10:38:51.494Z,20.06
2016-09-18T10:39:51.475Z,20.09
2016-09-18T10:40:51.461Z,20.06
2016-09-18T10:41:51.606Z,20.07
2016-09-18T10:42:51.425Z,20.11
2016-09-18T10:43:51.405Z,20.09
2016-09-18T10:44:51.391Z,20.03
2016-09-18T10:45:51.373Z,19.95
2016-09-18T10:46:51.361Z,19.94
2016-09-18T10:47:51.642Z,20
2016-09-18T10:48:51.321Z,20
2016-09-18T10:49:51.305Z,20.18
2016-09-18T10:50:51.289Z,20.21
2016-09-18T10:51:51.270Z,20.29
2016-09-18T10:52:51.255Z,20.39
2016-09-18T10:53:51.236Z,20.52
2016-09-18T10:54:51.217Z,20.52
2016-09-18T10:55:51.207Z,20.59
2016-09-18T10:56:51.185Z,20.63
2016-09-18T10:57:51.168Z,20.67
2016-09-18T10:58:51.150Z,20.74
2016-09-18T10:59:51.144Z,20.87
2016-09-18T11:00:51.118Z,20.87
2016-09-18T11:01:51.110Z,20.93
2016-09-18T11:02:51.086Z,21
2016-09-18T11:03:51.070Z,21.02
2016-09-18T11:04:51.054Z,21.24
2016-09-18T11:05:51.336Z,21.3
2016-09-18T11:06:51.023Z,21.29
2016-09-18T11:07:51.006Z,21.17
2016-09-18T11:08:50.990Z,21.11
2016-09-18T11:09:50.982Z,21.21
2016-09-18T11:10:50.962Z,21.14
2016-09-18T11:11:50.948Z,21.2
2016-09-18T11:12:50.928Z,21.11
2016-09-18T11:13:50.916Z,21.14
2016-09-18T11:14:50.901Z,21.09
2016-09-18T11:15:50.872Z,21.02
2016-09-18T11:16:50.863Z,21
2016-09-18T11:17:50.842Z,20.88
2016-09-18T11:18:50.828Z,21.06
2016-09-18T11:19:50.806Z,21.07
2016-09-18T11:20:50.794Z,21.06
2016-09-18T11:21:50.776Z,21.15
2016-09-18T11:22:50.758Z,21.24
2016-09-18T11:23:50.746Z,21.22
2016-09-18T11:24:50.728Z,21.33
2016-09-18T11:25:50.717Z,21.35
2016-09-18T11:26:50.696Z,21.36
2016-09-18T11:27:50.682Z,21.39
2016-09-18T11:28:50.667Z,21.39
2016-09-18T11:29:50.650Z,21.36
2016-09-18T11:30:50.635Z,21.33
2016-09-18T11:31:50.616Z,21.27
2016-09-18T11:32:50.599Z,21.43
2016-09-18T11:33:50.582Z,21.33
2016-09-18T11:34:50.569Z,21.39
2016-09-18T11:35:50.549Z,21.52
2016-09-18T11:36:50.537Z,21.5
2016-09-18T11:37:50.518Z,21.6
2016-09-18T11:38:50.505Z,21.66
2016-09-18T11:39:50.486Z,21.61
2016-09-18T11:40:50.475Z,21.73
2016-09-18T11:41:50.457Z,21.76
2016-09-18T11:42:50.442Z,21.75
2016-09-18T11:43:50.427Z,21.76
2016-09-18T11:44:50.412Z,21.73
2016-09-18T11:45:50.394Z,21.7
2016-09-18T11:46:50.387Z,21.7
2016-09-18T11:47:50.368Z,21.72
2016-09-18T11:48:50.345Z,21.7
2016-09-18T11:49:50.331Z,21.7
2016-09-18T11:50:50.316Z,21.64
2016-09-18T11:51:50.311Z,21.62
2016-09-18T11:52:50.282Z,21.51
2016-09-18T11:53:50.272Z,21.4
2016-09-18T11:54:50.253Z,21.22
2016-09-18T11:55:50.247Z,21.21
2016-09-18T11:56:50.221Z,21.06
2016-09-18T11:57:50.208Z,21.06
2016-09-18T11:58:50.190Z,21.11
2016-09-18T11:59:50.193Z,21.09
2016-09-18T12:00:50.154Z,21.17
2016-09-18T12:01:50.144Z,21.06
2016-09-18T12:02:50.122Z,21.07
2016-09-18T12:03:50.105Z,21.18
2016-09-18T12:04:50.087Z,21.21
2016-09-18T12:05:50.070Z,21.27
2016-09-18T12:06:50.055Z,21.27
2016-09-18T12:07:50.051Z,21.36
2016-09-18T12:08:50.022Z,21.37
2016-09-18T12:09:50.005Z,21.5
2016-09-18T12:10:49.991Z,21.39
2016-09-18T12:16:42.916Z,21.83
2016-09-18T12:17:13.052Z,21.88
2016-09-18T12:18:13.036Z,21.91
2016-09-18T12:19:13.019Z,22
2016-09-18T12:20:13.005Z,21.98
2016-09-18T12:21:12.989Z,22.06
2016-09-18T12:22:12.975Z,22.04
2016-09-18T12:23:12.960Z,22.13
2016-09-18T12:24:12.940Z,22.13
2016-09-18T12:25:12.925Z,22.25
2016-09-18T12:26:12.909Z,22.28
2016-09-18T12:27:12.889Z,22.26
2016-09-18T12:28:12.880Z,22.41
2016-09-18T12:29:12.863Z,22.43
2016-09-18T12:30:12.847Z,22.47
2016-09-18T12:31:12.836Z,22.57
2016-09-18T12:32:12.819Z,22.57
2016-09-18T12:33:12.800Z,22.6
2016-09-18T12:34:12.787Z,22.66
2016-09-18T12:35:12.770Z,22.55
2016-09-18T12:36:12.755Z,22.47
2016-09-18T12:37:12.739Z,22.48
2016-09-18T12:38:12.738Z,22.6
2016-09-18T12:39:12.709Z,22.62
2016-09-18T12:40:12.695Z,22.65
2016-09-18T12:41:12.676Z,22.72
2016-09-18T12:42:12.668Z,22.7
2016-09-18T12:43:12.645Z,22.69
2016-09-18T12:44:12.638Z,22.53
2016-09-18T12:45:12.620Z,22.44
2016-09-18T12:46:12.605Z,22.41
2016-09-18T12:47:12.591Z,22.32
2016-09-18T12:48:12.572Z,22.23
2016-09-18T12:49:12.563Z,22.2
2016-09-18T12:50:12.544Z,22.18
2016-09-18T12:51:12.525Z,22.13
2016-09-18T12:52:12.509Z,22.14
2016-09-18T12:53:12.497Z,22.26
2016-09-18T12:54:12.479Z,22.17
2016-09-18T12:55:12.465Z,22.25
2016-09-18T12:56:12.442Z,22.25
2016-09-18T12:57:12.435Z,22.23
2016-09-18T12:58:12.414Z,22.18
2016-09-18T12:59:12.405Z,22.26